createdAt,value
2023-09-28T00:00:05.860Z,22.94
2023-09-28T00:01:12.633Z,19.50
2023-09-28T00:02:15.564Z,20.62
2023-09-28T00:03:18.547Z,21.62
2023-09-28T00:04:21.612Z,19.37
2023-09-28T00:05:25.160Z,20.94
2023-09-28T00:06:28.111Z,23.81
2023-09-28T00:07:31.008Z,22.19
2023-09-28T00:08:35.778Z,23.31
2023-09-28T00:09:38.297Z,19.94
2023-09-28T00:10:41.286Z,22.87
2023-09-28T00:11:44.231Z,15.63
2023-09-28T00:12:48.156Z,22.00
2023-09-28T00:13:52.335Z,24.19
2023-09-28T00:14:55.391Z,25.37
2023-09-28T00:15:58.568Z,23.75
2023-09-28T00:17:02.888Z,24.75
2023-09-28T00:18:05.886Z,21.75
2023-09-28T00:19:08.862Z,23.87
2023-09-28T00:20:14.005Z,18.12
2023-09-28T00:21:16.881Z,20.12
2023-09-28T00:22:19.886Z,21.00
2023-09-28T00:23:22.745Z,29.56
2023-09-28T00:24:25.943Z,23.00
2023-09-28T00:25:29.163Z,22.37
2023-09-28T00:26:32.124Z,19.56
2023-09-28T00:27:35.060Z,24.19
2023-09-28T00:28:38.034Z,27.75
2023-09-28T00:29:43.788Z,26.00
2023-09-28T00:30:46.793Z,23.81
2023-09-28T00:31:49.836Z,25.69
2023-09-28T00:32:53.970Z,21.50
2023-09-28T00:33:57.027Z,22.19
2023-09-28T00:34:59.902Z,20.37
2023-09-28T00:36:02.924Z,22.31
2023-09-28T00:37:05.941Z,23.47
2023-09-28T00:38:08.864Z,25.94
2023-09-28T00:39:12.835Z,18.00
2023-09-28T00:40:16.139Z,24.00
2023-09-28T00:41:19.403Z,24.44
2023-09-28T00:42:24.123Z,26.37
2023-09-28T00:43:27.624Z,24.63
2023-09-28T00:44:30.530Z,24.93
2023-09-28T00:45:35.170Z,23.56
2023-09-28T00:46:38.580Z,25.56
2023-09-28T00:47:42.107Z,25.75
2023-09-28T00:48:49.763Z,22.06
2023-09-28T00:49:53.289Z,22.69
2023-09-28T00:50:56.250Z,26.50
2023-09-28T00:51:59.189Z,24.81
2023-09-28T00:53:03.975Z,25.00
2023-09-28T00:54:07.142Z,25.94
2023-09-28T00:55:11.187Z,23.31
2023-09-28T00:56:14.196Z,27.06
2023-09-28T00:57:17.185Z,23.50
2023-09-28T00:58:20.298Z,23.38
2023-09-28T00:59:24.191Z,21.25
2023-09-28T01:00:27.349Z,22.81
2023-09-28T01:01:30.506Z,27.50
2023-09-28T01:02:33.455Z,25.19
2023-09-28T01:03:36.480Z,23.62
2023-09-28T01:04:39.882Z,18.06
2023-09-28T01:05:42.842Z,23.19
2023-09-28T01:06:45.765Z,24.56
2023-09-28T01:07:48.773Z,24.12
2023-09-28T01:08:52.209Z,30.88
2023-09-28T01:09:55.255Z,25.27
2023-09-28T01:10:58.264Z,22.87
2023-09-28T01:12:01.063Z,26.94
2023-09-28T01:13:04.434Z,21.56
2023-09-28T01:14:07.330Z,24.19
2023-09-28T01:15:11.940Z,25.37
2023-09-28T01:16:14.912Z,24.37
2023-09-28T01:17:17.849Z,24.00
2023-09-28T01:18:21.526Z,25.62
2023-09-28T01:19:24.669Z,22.62
2023-09-28T01:20:27.588Z,26.50
2023-09-28T01:21:30.597Z,22.19
2023-09-28T01:22:33.461Z,27.69
2023-09-28T01:23:37.808Z,23.94
2023-09-28T01:24:40.732Z,26.06
2023-09-28T01:25:43.686Z,26.81
2023-09-28T01:26:46.685Z,23.81
2023-09-28T01:27:49.737Z,23.69
2023-09-28T01:28:52.725Z,28.94
2023-09-28T01:29:55.607Z,27.94
2023-09-28T01:30:58.663Z,25.88
2023-09-28T01:32:02.857Z,26.19
2023-09-28T01:33:05.713Z,25.94
2023-09-28T01:34:08.661Z,21.00
2023-09-28T01:35:11.639Z,26.56
2023-09-28T01:36:15.080Z,29.87
2023-09-28T01:37:19.568Z,23.12
2023-09-28T01:38:26.897Z,30.06
2023-09-28T01:39:31.090Z,29.37
2023-09-28T01:40:34.124Z,25.75
2023-09-28T01:41:37.067Z,27.56
2023-09-28T01:42:41.548Z,27.50
2023-09-28T01:43:44.450Z,32.00
2023-09-28T01:44:47.360Z,25.12
2023-09-28T01:45:50.287Z,28.00
2023-09-28T01:46:53.260Z,28.50
2023-09-28T01:47:56.252Z,32.19
2023-09-28T01:48:59.248Z,27.75
2023-09-28T01:50:02.670Z,26.00
2023-09-28T01:51:05.762Z,30.44
2023-09-28T01:52:08.681Z,26.87
2023-09-28T01:53:11.558Z,23.25
2023-09-28T01:54:14.495Z,24.50
2023-09-28T01:55:17.331Z,33.60
2023-09-28T01:56:20.253Z,26.87
2023-09-28T01:57:23.127Z,29.81
2023-09-28T01:58:26.848Z,28.19
2023-09-28T01:59:32.207Z,31.19
2023-09-28T02:00:36.021Z,29.44
2023-09-28T02:01:39.028Z,27.37
2023-09-28T02:02:43.298Z,32.06
2023-09-28T02:03:46.340Z,29.31
2023-09-28T02:04:49.309Z,28.56
2023-09-28T02:05:52.410Z,23.75
2023-09-28T02:06:55.427Z,26.00
2023-09-28T02:07:58.456Z,30.69
2023-09-28T02:09:01.390Z,28.27
2023-09-28T02:10:04.525Z,31.44
2023-09-28T02:11:07.529Z,32.38
2023-09-28T02:12:12.221Z,29.63
2023-09-28T02:13:15.049Z,32.69
2023-09-28T02:14:17.968Z,35.81
2023-09-28T02:15:20.932Z,23.81
2023-09-28T02:16:23.929Z,32.19
2023-09-28T02:17:28.415Z,30.94
2023-09-28T02:18:31.399Z,28.31
2023-09-28T02:19:34.265Z,24.81
2023-09-28T02:20:37.256Z,28.94
2023-09-28T02:21:40.129Z,27.19
2023-09-28T02:22:43.685Z,28.31
2023-09-28T02:23:46.666Z,27.81
2023-09-28T02:24:49.882Z,33.88
2023-09-28T02:25:52.886Z,27.44
2023-09-28T02:26:55.816Z,32.13
2023-09-28T02:27:58.670Z,34.00
2023-09-28T02:29:01.766Z,31.00
2023-09-28T02:30:04.967Z,30.62
2023-09-28T02:31:08.771Z,34.13
2023-09-28T02:32:13.202Z,31.25
2023-09-28T02:33:16.183Z,21.06
2023-09-28T02:34:19.190Z,30.37
2023-09-28T02:35:22.065Z,31.81
2023-09-28T02:36:24.977Z,35.31
2023-09-28T02:37:30.387Z,31.44
2023-09-28T02:38:33.346Z,29.25
2023-09-28T02:39:36.709Z,27.00
2023-09-28T02:40:39.888Z,34.00
2023-09-28T02:41:44.434Z,30.37
2023-09-28T02:42:47.637Z,30.62
2023-09-28T02:43:50.509Z,32.25
2023-09-28T02:44:53.393Z,30.62
2023-09-28T02:45:56.440Z,30.31
2023-09-28T02:46:59.538Z,31.19
2023-09-28T02:48:03.624Z,34.00
2023-09-28T02:49:06.569Z,36.19
2023-09-28T02:50:10.508Z,30.94
2023-09-28T02:51:13.495Z,31.25
2023-09-28T02:52:16.740Z,31.25
2023-09-28T02:53:19.678Z,32.44
2023-09-28T02:54:22.639Z,33.31
2023-09-28T02:55:27.046Z,28.75
2023-09-28T02:56:29.994Z,32.75
2023-09-28T02:57:33.043Z,33.56
2023-09-28T02:58:35.907Z,32.07
2023-09-28T02:59:38.792Z,33.19
2023-09-28T03:00:41.772Z,31.50
2023-09-28T03:01:44.723Z,32.13
2023-09-28T03:02:48.044Z,34.06
2023-09-28T03:03:50.980Z,34.31
2023-09-28T03:04:54.189Z,35.19
2023-09-28T03:05:57.040Z,33.63
2023-09-28T03:06:59.945Z,38.56
2023-09-28T03:08:02.975Z,37.38
2023-09-28T03:09:05.858Z,32.25
2023-09-28T03:10:13.092Z,34.38
2023-09-28T03:11:15.911Z,30.62
2023-09-28T03:12:18.822Z,32.60
2023-09-28T03:13:21.755Z,33.81
2023-09-28T03:14:24.676Z,37.60
2023-09-28T03:15:28.279Z,30.31
2023-09-28T03:16:32.729Z,30.44
2023-09-28T03:17:35.685Z,29.81
2023-09-28T03:18:39.176Z,37.00
2023-09-28T03:19:42.002Z,33.27
2023-09-28T03:20:44.916Z,30.69
2023-09-28T03:21:47.758Z,36.25
2023-09-28T03:22:51.102Z,34.38
2023-09-28T03:23:54.574Z,33.63
2023-09-28T03:24:57.548Z,32.88
2023-09-28T03:26:00.458Z,31.00
2023-09-28T03:27:10.590Z,35.31
2023-09-28T03:28:07.838Z,31.31
2023-09-28T03:29:10.681Z,33.94
2023-09-28T03:30:14.655Z,36.06
2023-09-28T03:31:17.578Z,28.87
2023-09-28T03:32:20.547Z,35.75
2023-09-28T03:33:23.600Z,34.50
2023-09-28T03:34:26.514Z,33.63
2023-09-28T03:35:29.414Z,33.19
2023-09-28T03:36:34.746Z,34.19
2023-09-28T03:37:38.106Z,34.38
2023-09-28T03:38:41.013Z,31.50
2023-09-28T03:39:44.049Z,32.25
2023-09-28T03:40:47.225Z,36.38
2023-09-28T03:41:50.141Z,35.25
2023-09-28T03:42:53.854Z,31.19
2023-09-28T03:43:57.050Z,27.81
2023-09-28T03:45:00.272Z,34.75
2023-09-28T03:46:03.273Z,32.50
2023-09-28T03:47:06.219Z,33.44
2023-09-28T03:48:09.203Z,32.31
2023-09-28T03:49:14.056Z,40.73
2023-09-28T03:50:16.685Z,35.19
2023-09-28T03:51:19.640Z,37.94
2023-09-28T03:52:22.539Z,36.69
2023-09-28T03:53:25.440Z,28.38
2023-09-28T03:54:28.404Z,35.67
2023-09-28T03:55:31.447Z,32.00
2023-09-28T03:56:35.504Z,29.12
2023-09-28T03:57:40.607Z,36.00
2023-09-28T03:58:43.726Z,37.06
2023-09-28T03:59:46.597Z,35.25
2023-09-28T04:00:49.634Z,28.56
2023-09-28T04:01:52.667Z,36.88
2023-09-28T04:02:56.086Z,37.93
2023-09-28T04:04:00.325Z,38.63
2023-09-28T04:05:03.206Z,39.00
2023-09-28T04:06:06.298Z,35.56
2023-09-28T04:07:09.289Z,33.56
2023-09-28T04:08:12.258Z,35.44
2023-09-28T04:09:15.222Z,33.75
2023-09-28T04:10:20.614Z,31.56
2023-09-28T04:11:22.888Z,36.50
2023-09-28T04:12:25.705Z,35.13
2023-09-28T04:13:28.526Z,32.27
2023-09-28T04:14:31.408Z,34.50
2023-09-28T04:15:34.395Z,34.69
2023-09-28T04:16:37.359Z,16.25
2023-09-28T04:17:43.729Z,32.63
2023-09-28T04:18:46.484Z,33.19
2023-09-28T04:19:49.353Z,36.63
2023-09-28T04:20:52.289Z,32.31
2023-09-28T04:21:55.212Z,34.60
2023-09-28T04:22:58.086Z,35.00
2023-09-28T04:24:01.073Z,31.87
2023-09-28T04:25:04.164Z,38.56
2023-09-28T04:26:07.381Z,36.44
2023-09-28T04:27:10.368Z,28.12
2023-09-28T04:28:14.519Z,34.63
2023-09-28T04:29:17.510Z,38.94
2023-09-28T04:30:23.421Z,33.69
2023-09-28T04:31:25.289Z,32.13
2023-09-28T04:32:28.405Z,34.19
2023-09-28T04:33:33.393Z,35.88
2023-09-28T04:34:36.333Z,27.00
2023-09-28T04:35:41.455Z,30.75
2023-09-28T04:36:44.378Z,32.88
2023-09-28T04:37:47.348Z,34.13
2023-09-28T04:38:50.264Z,27.19
2023-09-28T04:39:53.214Z,33.31
2023-09-28T04:40:56.269Z,28.12
2023-09-28T04:41:59.120Z,35.94
2023-09-28T04:43:02.099Z,33.25
2023-09-28T04:44:07.927Z,31.62
2023-09-28T04:45:10.904Z,32.60
2023-09-28T04:46:14.157Z,32.75
2023-09-28T04:47:17.406Z,33.38
2023-09-28T04:48:20.677Z,34.31
2023-09-28T04:49:23.737Z,38.25
2023-09-28T04:50:29.107Z,33.69
2023-09-28T04:51:31.962Z,34.13
2023-09-28T04:52:34.842Z,28.50
2023-09-28T04:53:37.889Z,34.63
2023-09-28T04:54:41.097Z,34.00
2023-09-28T04:55:44.029Z,35.56
2023-09-28T04:56:48.708Z,36.13
2023-09-28T04:57:51.628Z,35.44
2023-09-28T04:58:54.743Z,30.69
2023-09-28T04:59:57.831Z,34.94
2023-09-28T05:01:00.902Z,32.50
2023-09-28T05:02:05.104Z,35.44
2023-09-28T05:03:08.154Z,37.31
2023-09-28T05:04:11.194Z,33.31
2023-09-28T05:05:18.696Z,35.56
2023-09-28T05:06:20.400Z,36.44
2023-09-28T05:07:25.081Z,31.87
2023-09-28T05:08:28.236Z,26.50
2023-09-28T05:09:31.301Z,35.56
2023-09-28T05:10:34.267Z,38.13
2023-09-28T05:11:37.217Z,32.44
2023-09-28T05:12:40.689Z,34.38
2023-09-28T05:13:43.591Z,33.13
2023-09-28T05:14:46.534Z,32.13
2023-09-28T05:15:50.593Z,33.69
2023-09-28T05:16:53.866Z,36.38
2023-09-28T05:17:56.777Z,35.07
2023-09-28T05:18:59.824Z,32.63
2023-09-28T05:20:02.869Z,38.69
2023-09-28T05:21:07.619Z,36.06
2023-09-28T05:22:10.560Z,32.75
2023-09-28T05:23:15.796Z,35.81
2023-09-28T05:24:17.905Z,30.56
2023-09-28T05:25:21.021Z,36.19
2023-09-28T05:26:23.943Z,40.27
2023-09-28T05:27:26.825Z,36.69
2023-09-28T05:28:31.399Z,33.50
2023-09-28T05:29:35.643Z,37.13
2023-09-28T05:30:38.953Z,35.81
2023-09-28T05:31:43.269Z,30.12
2023-09-28T05:32:46.286Z,36.75
2023-09-28T05:33:49.224Z,40.44
2023-09-28T05:34:52.225Z,38.56
2023-09-28T05:35:55.083Z,38.27
2023-09-28T05:36:58.019Z,36.94
2023-09-28T05:38:00.920Z,37.44
2023-09-28T05:39:03.907Z,32.13
2023-09-28T05:40:07.341Z,40.25
2023-09-28T05:41:10.204Z,36.38
2023-09-28T05:42:13.303Z,30.06
2023-09-28T05:43:16.153Z,38.56
2023-09-28T05:44:19.111Z,38.80
2023-09-28T05:45:22.192Z,42.50
2023-09-28T05:46:27.650Z,38.81
2023-09-28T05:47:29.704Z,38.27
2023-09-28T05:48:32.688Z,37.06
2023-09-28T05:49:37.551Z,38.06
2023-09-28T05:50:40.075Z,36.19
2023-09-28T05:51:44.508Z,34.88
2023-09-28T05:52:47.464Z,41.50
2023-09-28T05:53:52.438Z,38.88
2023-09-28T05:54:55.771Z,39.19
2023-09-28T05:55:58.845Z,35.19
2023-09-28T05:57:01.855Z,33.53
2023-09-28T05:58:04.875Z,36.75
2023-09-28T05:59:07.803Z,39.31
2023-09-28T06:00:11.669Z,37.44
2023-09-28T06:01:16.140Z,35.63
2023-09-28T06:02:20.522Z,36.38
2023-09-28T06:03:26.932Z,37.50
2023-09-28T06:04:29.963Z,33.13
2023-09-28T06:05:32.889Z,33.00
2023-09-28T06:06:36.051Z,35.69
2023-09-28T06:07:39.051Z,29.75
2023-09-28T06:08:42.161Z,36.07
2023-09-28T06:09:45.137Z,34.19
2023-09-28T06:10:51.133Z,32.50
2023-09-28T06:11:54.240Z,32.33
2023-09-28T06:12:57.322Z,31.25
2023-09-28T06:14:08.216Z,34.13
2023-09-28T06:15:06.252Z,33.88
2023-09-28T06:16:11.314Z,35.56
2023-09-28T06:17:14.492Z,32.06
2023-09-28T06:18:17.467Z,38.13
2023-09-28T06:19:20.880Z,29.37
2023-09-28T06:20:23.899Z,31.75
2023-09-28T06:21:26.911Z,32.25
2023-09-28T06:22:29.777Z,29.19
2023-09-28T06:23:39.278Z,29.37
2023-09-28T06:24:40.087Z,30.19
2023-09-28T06:25:43.085Z,34.63
2023-09-28T06:26:48.003Z,30.81
2023-09-28T06:27:50.560Z,32.56
2023-09-28T06:28:53.729Z,31.56
2023-09-28T06:29:56.988Z,26.25
2023-09-28T06:31:01.173Z,34.06
2023-09-28T06:32:04.232Z,28.25
2023-09-28T06:33:07.354Z,30.75
2023-09-28T06:34:10.359Z,33.06
2023-09-28T06:35:13.248Z,30.00
2023-09-28T06:36:30.272Z,27.19
2023-09-28T06:37:21.738Z,34.56
2023-09-28T06:38:24.610Z,29.12
2023-09-28T06:39:27.629Z,29.75
2023-09-28T06:40:30.697Z,29.69
2023-09-28T06:41:33.566Z,28.62
2023-09-28T06:42:37.679Z,29.19
2023-09-28T06:43:41.030Z,30.50
2023-09-28T06:44:43.949Z,29.87
2023-09-28T06:45:49.267Z,30.25
2023-09-28T06:46:52.367Z,29.19
2023-09-28T06:48:08.969Z,29.12
2023-09-28T06:48:59.957Z,28.00
2023-09-28T06:50:04.168Z,27.31
2023-09-28T06:51:07.240Z,28.12
2023-09-28T06:52:10.270Z,29.00
2023-09-28T06:53:13.366Z,29.37
2023-09-28T06:54:16.800Z,29.25
2023-09-28T06:55:21.164Z,25.44
2023-09-28T06:56:24.119Z,32.06
2023-09-28T06:57:27.208Z,29.63
2023-09-28T06:58:30.198Z,24.12
2023-09-28T06:59:33.225Z,29.00
2023-09-28T07:00:37.670Z,27.94
2023-09-28T07:01:40.784Z,29.75
2023-09-28T07:02:45.269Z,30.19
2023-09-28T07:03:49.413Z,35.50
2023-09-28T07:04:56.191Z,27.69
2023-09-28T07:05:59.049Z,29.63
2023-09-28T07:07:02.081Z,29.81
2023-09-28T07:08:05.330Z,31.62
2023-09-28T07:09:08.409Z,28.56
2023-09-28T07:10:12.980Z,31.25
2023-09-28T07:11:15.967Z,30.62
2023-09-28T07:12:19.002Z,26.87
2023-09-28T07:13:21.863Z,28.62
2023-09-28T07:14:26.031Z,31.81
2023-09-28T07:15:29.553Z,32.06
2023-09-28T07:16:32.777Z,36.69
2023-09-28T07:17:36.160Z,32.69
2023-09-28T07:18:39.373Z,28.25
2023-09-28T07:19:42.373Z,36.38
2023-09-28T07:20:45.610Z,27.81
2023-09-28T07:21:48.630Z,34.56
2023-09-28T07:22:51.755Z,33.00
2023-09-28T07:24:01.834Z,22.00
2023-09-28T07:25:03.346Z,29.94
2023-09-28T07:26:16.794Z,25.37
2023-09-28T07:27:19.820Z,25.62
2023-09-28T07:28:24.893Z,27.50
2023-09-28T07:29:27.882Z,29.25
2023-09-28T07:30:30.919Z,26.19
2023-09-28T07:31:33.779Z,27.19
2023-09-28T07:32:37.205Z,26.56
2023-09-28T07:33:40.595Z,30.31
2023-09-28T07:34:47.126Z,25.62
2023-09-28T07:35:51.937Z,27.25
2023-09-28T07:36:54.992Z,30.12
2023-09-28T07:38:00.527Z,28.06
2023-09-28T07:39:02.668Z,25.37
2023-09-28T07:40:07.613Z,27.00
2023-09-28T07:41:10.639Z,25.19
2023-09-28T07:42:14.334Z,27.13
2023-09-28T07:43:18.025Z,23.50
2023-09-28T07:44:20.963Z,27.87
2023-09-28T07:45:23.892Z,26.50
2023-09-28T07:46:26.958Z,28.62
2023-09-28T07:47:29.952Z,23.75
2023-09-28T07:48:33.002Z,23.56
2023-09-28T07:49:39.006Z,27.19
2023-09-28T07:50:47.126Z,22.06
2023-09-28T07:51:49.978Z,19.50
2023-09-28T07:52:52.889Z,21.94
2023-09-28T07:53:55.995Z,24.63
2023-09-28T07:54:59.005Z,21.06
2023-09-28T07:56:01.925Z,23.06
2023-09-28T07:57:05.372Z,21.00
2023-09-28T07:58:25.332Z,24.25
2023-09-28T07:59:12.874Z,23.56
2023-09-28T08:00:16.041Z,20.69
2023-09-28T08:01:21.611Z,19.81
2023-09-28T08:02:24.578Z,17.69
2023-09-28T08:03:27.486Z,17.25
2023-09-28T08:04:32.100Z,20.81
2023-09-28T08:05:35.249Z,19.94
2023-09-28T08:06:38.340Z,22.25
2023-09-28T08:07:42.100Z,18.81
2023-09-28T08:08:45.812Z,21.62
2023-09-28T08:09:48.786Z,21.12
2023-09-28T08:10:51.869Z,17.50
2023-09-28T08:11:54.753Z,20.25
2023-09-28T08:12:57.703Z,18.75
2023-09-28T08:14:00.656Z,23.06
2023-09-28T08:15:04.320Z,19.62
2023-09-28T08:16:10.343Z,19.94
2023-09-28T08:17:13.335Z,18.25
2023-09-28T08:18:16.290Z,19.06
2023-09-28T08:19:19.153Z,19.25
2023-09-28T08:20:23.889Z,17.69
2023-09-28T08:21:26.895Z,18.56
2023-09-28T08:22:29.847Z,18.37
2023-09-28T08:23:32.892Z,20.37
2023-09-28T08:24:35.743Z,21.69
2023-09-28T08:25:38.563Z,19.31
2023-09-28T08:26:41.600Z,18.87
2023-09-28T08:27:45.736Z,17.75
2023-09-28T08:28:48.671Z,14.25
2023-09-28T08:29:51.596Z,17.94
2023-09-28T08:30:57.559Z,17.62
2023-09-28T08:31:59.733Z,18.81
2023-09-28T08:33:03.318Z,17.87
2023-09-28T08:34:06.533Z,18.81
2023-09-28T08:35:13.423Z,18.19
2023-09-28T08:36:20.240Z,15.44
2023-09-28T08:37:23.157Z,18.37
2023-09-28T08:38:26.058Z,18.37
2023-09-28T08:39:31.010Z,20.19
2023-09-28T08:40:33.611Z,20.69
2023-09-28T08:41:38.199Z,17.94
2023-09-28T08:42:43.552Z,18.19
2023-09-28T08:43:48.446Z,18.87
2023-09-28T08:44:52.888Z,18.12
2023-09-28T08:45:57.627Z,20.56
2023-09-28T08:47:01.091Z,18.19
2023-09-28T08:48:05.993Z,19.62
2023-09-28T08:49:09.360Z,18.94
2023-09-28T08:50:13.499Z,18.44
2023-09-28T08:51:19.907Z,17.44
2023-09-28T08:52:22.481Z,21.94
2023-09-28T08:53:25.896Z,16.94
2023-09-28T08:54:29.550Z,21.31
2023-09-28T08:55:34.100Z,21.94
2023-09-28T08:56:46.102Z,19.62
2023-09-28T08:57:49.170Z,22.62
2023-09-28T08:58:52.258Z,20.56
2023-09-28T08:59:57.704Z,14.94
2023-09-28T09:01:01.124Z,20.94
2023-09-28T09:02:04.479Z,21.19
2023-09-28T09:03:10.167Z,21.06
2023-09-28T09:04:12.949Z,20.94
2023-09-28T09:05:17.612Z,22.44
2023-09-28T09:06:24.095Z,20.44
2023-09-28T09:07:26.221Z,19.81
2023-09-28T09:08:30.650Z,20.25
2023-09-28T09:09:34.068Z,20.25
2023-09-28T09:10:38.563Z,24.81
2023-09-28T09:11:43.022Z,19.25
2023-09-28T09:12:45.980Z,19.00
2023-09-28T09:13:54.913Z,19.12
2023-09-28T09:14:56.709Z,20.88
2023-09-28T09:16:01.000Z,21.44
2023-09-28T09:17:05.655Z,24.69
2023-09-28T09:18:08.714Z,20.31
2023-09-28T09:19:15.598Z,20.75
2023-09-28T09:20:18.926Z,18.56
2023-09-28T09:21:22.369Z,19.87
2023-09-28T09:22:41.388Z,23.38
2023-09-28T09:23:31.792Z,19.12
2023-09-28T09:24:35.211Z,22.75
2023-09-28T09:25:45.321Z,21.62
2023-09-28T09:26:49.038Z,19.62
2023-09-28T09:27:52.061Z,20.81
2023-09-28T09:28:56.686Z,20.25
2023-09-28T09:30:01.372Z,18.94
2023-09-28T09:31:06.356Z,26.25
2023-09-28T09:32:09.521Z,25.31
2023-09-28T09:33:12.748Z,25.56
2023-09-28T09:34:16.813Z,29.31
2023-09-28T09:35:23.444Z,30.62
2023-09-28T09:36:28.613Z,25.06
2023-09-28T09:37:30.720Z,22.19
2023-09-28T09:38:33.700Z,20.56
2023-09-28T09:39:37.141Z,18.00
2023-09-28T09:40:40.244Z,21.56
2023-09-28T09:41:46.454Z,15.69
2023-09-28T09:42:49.453Z,19.37
2023-09-28T09:43:53.934Z,18.50
2023-09-28T09:44:59.403Z,17.31
2023-09-28T09:46:06.123Z,20.75
2023-09-28T09:47:10.821Z,22.13
2023-09-28T09:48:14.631Z,18.62
2023-09-28T09:49:17.843Z,18.00
2023-09-28T09:50:21.856Z,20.00
2023-09-28T09:51:25.482Z,20.06
2023-09-28T09:52:29.382Z,19.75
2023-09-28T09:53:32.846Z,17.00
2023-09-28T09:54:36.493Z,19.75
2023-09-28T09:55:42.703Z,19.31
2023-09-28T09:56:47.086Z,18.06
2023-09-28T09:57:50.296Z,16.19
2023-09-28T09:58:54.822Z,18.44
2023-09-28T09:59:59.993Z,17.12
2023-09-28T10:01:03.726Z,19.50
2023-09-28T10:02:08.534Z,17.06
2023-09-28T10:03:11.998Z,13.31
2023-09-28T10:04:18.705Z,18.37
2023-09-28T10:05:23.548Z,15.25
2023-09-28T10:06:27.087Z,15.75
2023-09-28T10:07:46.517Z,20.19
2023-09-28T10:08:36.249Z,17.00
2023-09-28T10:09:40.625Z,18.06
2023-09-28T10:10:45.184Z,16.62
2023-09-28T10:11:48.700Z,18.50
2023-09-28T10:12:51.794Z,17.87
2023-09-28T10:13:54.972Z,15.06
2023-09-28T10:14:59.818Z,15.25
2023-09-28T10:16:04.496Z,13.56
2023-09-28T10:17:07.905Z,15.19
2023-09-28T10:18:11.235Z,15.69
2023-09-28T10:19:19.897Z,15.25
2023-09-28T10:20:23.203Z,16.44
2023-09-28T10:21:26.477Z,15.63
2023-09-28T10:22:29.411Z,15.56
2023-09-28T10:23:32.369Z,15.56
2023-09-28T10:24:35.371Z,15.81
2023-09-28T10:25:39.805Z,10.94
2023-09-28T10:26:51.101Z,16.62
2023-09-28T10:27:55.811Z,15.31
2023-09-28T10:29:02.324Z,16.75
2023-09-28T10:30:21.543Z,15.63
2023-09-28T10:31:24.488Z,14.13
2023-09-28T10:32:30.905Z,13.19
2023-09-28T10:33:34.018Z,19.25
2023-09-28T10:34:36.901Z,15.13
2023-09-28T10:35:41.192Z,12.44
2023-09-28T10:36:44.357Z,15.25
2023-09-28T10:38:05.208Z,14.19
2023-09-28T10:39:14.729Z,29.06
2023-09-28T10:40:18.292Z,14.69
2023-09-28T10:41:24.595Z,67.37
2023-09-28T10:42:27.652Z,16.62
2023-09-28T10:43:31.385Z,14.56
2023-09-28T10:44:34.365Z,16.06
2023-09-28T10:47:03.361Z,13.06
2023-09-28T10:48:07.080Z,18.87
2023-09-28T10:49:17.673Z,15.94
2023-09-28T10:50:20.703Z,15.50
2023-09-28T10:51:23.653Z,14.63
2023-09-28T10:52:26.683Z,13.38
2023-09-28T10:53:29.568Z,15.44
2023-09-28T10:54:32.586Z,16.56
2023-09-28T10:55:36.739Z,14.69
2023-09-28T10:56:39.857Z,13.25
2023-09-28T10:57:44.319Z,13.38
2023-09-28T10:58:47.149Z,10.63
2023-09-28T10:59:52.832Z,14.56
2023-09-28T11:00:56.319Z,12.81
2023-09-28T11:02:02.034Z,14.06
2023-09-28T11:03:05.359Z,14.19
2023-09-28T11:04:08.620Z,14.19
2023-09-28T11:05:11.690Z,15.25
2023-09-28T11:06:15.137Z,13.62
2023-09-28T11:07:18.295Z,13.94
2023-09-28T11:08:24.669Z,15.25
2023-09-28T11:09:28.674Z,16.12
2023-09-28T11:10:31.759Z,17.62
2023-09-28T11:11:37.290Z,41.31
2023-09-28T11:12:41.868Z,14.81
2023-09-28T11:13:43.653Z,36.50
2023-09-28T11:14:46.509Z,29.56
2023-09-28T11:15:49.795Z,17.19
2023-09-28T11:16:53.015Z,16.06
2023-09-28T11:17:57.425Z,11.56
2023-09-28T11:19:00.626Z,13.69
2023-09-28T11:20:03.930Z,22.31
2023-09-28T11:21:06.851Z,14.81
2023-09-28T11:22:09.757Z,15.25
2023-09-28T11:23:12.793Z,14.87
2023-09-28T11:24:15.844Z,11.75
2023-09-28T11:25:30.446Z,12.56
2023-09-28T11:26:23.964Z,16.75
2023-09-28T11:27:46.905Z,19.37
2023-09-28T11:28:54.141Z,13.94
2023-09-28T11:29:57.731Z,12.37
2023-09-28T11:31:10.507Z,13.13
2023-09-28T11:32:13.717Z,12.69
2023-09-28T11:33:17.171Z,10.69
2023-09-28T11:34:33.074Z,14.69
2023-09-28T11:35:36.146Z,11.19
2023-09-28T11:36:39.388Z,11.44
2023-09-28T11:37:42.516Z,13.13
2023-09-28T11:38:45.692Z,24.69
2023-09-28T11:39:48.524Z,19.75
2023-09-28T11:40:52.932Z,15.69
2023-09-28T11:41:57.553Z,13.62
2023-09-28T11:43:02.085Z,17.69
2023-09-28T11:44:05.431Z,14.69
2023-09-28T11:45:08.574Z,17.50
2023-09-28T11:46:15.396Z,15.13
2023-09-28T11:47:22.677Z,12.81
2023-09-28T11:48:26.154Z,10.13
2023-09-28T11:49:29.075Z,14.00
2023-09-28T11:50:32.695Z,14.75
2023-09-28T11:51:36.421Z,13.19
2023-09-28T11:52:39.432Z,13.13
2023-09-28T11:53:43.346Z,16.75
2023-09-28T11:54:46.263Z,14.87
2023-09-28T11:55:49.327Z,14.63
2023-09-28T11:56:52.734Z,31.00
2023-09-28T11:57:58.862Z,15.19
2023-09-28T11:59:02.176Z,14.94
2023-09-28T12:00:06.056Z,16.31
2023-09-28T12:01:09.077Z,11.31
2023-09-28T12:02:13.897Z,14.25
2023-09-28T12:03:19.540Z,15.06
2023-09-28T12:04:22.686Z,16.37
2023-09-28T12:05:25.667Z,10.19
2023-09-28T12:06:29.065Z,15.50
2023-09-28T12:07:31.955Z,14.69
2023-09-28T12:08:34.904Z,14.25
2023-09-28T12:09:42.369Z,11.06
2023-09-28T12:11:01.728Z,12.81
2023-09-28T12:12:32.461Z,17.50
2023-09-28T12:13:28.532Z,17.75
2023-09-28T12:14:39.773Z,13.19
2023-09-28T12:16:03.277Z,15.19
2023-09-28T12:17:06.293Z,14.13
2023-09-28T12:18:09.373Z,16.00
2023-09-28T12:19:12.345Z,17.06
2023-09-28T12:20:17.496Z,15.56
2023-09-28T12:21:20.550Z,10.50
2023-09-28T12:22:23.539Z,13.44
2023-09-28T12:23:29.498Z,4.81
2023-09-28T12:24:32.530Z,16.56
2023-09-28T12:25:35.656Z,13.38
2023-09-28T12:26:38.739Z,14.44
2023-09-28T12:27:41.667Z,14.00
2023-09-28T12:28:44.657Z,12.56
2023-09-28T12:29:47.592Z,16.50
2023-09-28T12:30:50.642Z,14.63
2023-09-28T12:31:53.465Z,11.56
2023-09-28T12:32:56.423Z,13.13
2023-09-28T12:33:59.433Z,12.37
2023-09-28T12:35:02.411Z,12.88
2023-09-28T12:36:05.730Z,16.31
2023-09-28T12:37:08.644Z,12.00
2023-09-28T12:38:11.505Z,16.87
2023-09-28T12:39:16.008Z,13.50
2023-09-28T12:40:19.149Z,14.06
2023-09-28T12:41:23.834Z,11.06
2023-09-28T12:42:26.951Z,15.38
2023-09-28T12:43:29.797Z,12.81
2023-09-28T12:44:32.655Z,12.50
2023-09-28T12:45:36.169Z,12.88
2023-09-28T12:46:39.377Z,15.50
2023-09-28T12:47:43.048Z,13.50
2023-09-28T12:48:48.414Z,14.63
2023-09-28T12:49:51.470Z,14.13
2023-09-28T12:50:54.490Z,13.75
2023-09-28T12:51:57.424Z,16.81
2023-09-28T12:53:00.842Z,14.63
2023-09-28T12:54:03.833Z,17.25
2023-09-28T12:55:08.314Z,14.06
2023-09-28T12:56:11.948Z,15.56
2023-09-28T12:57:15.003Z,13.38
2023-09-28T12:58:17.987Z,15.19
2023-09-28T12:59:20.916Z,17.56
2023-09-28T13:00:24.095Z,15.50
2023-09-28T13:01:27.157Z,14.50
2023-09-28T13:02:30.283Z,13.50
2023-09-28T13:03:35.061Z,17.44
2023-09-28T13:04:38.268Z,14.75
2023-09-28T13:05:41.533Z,17.37
2023-09-28T13:06:44.805Z,14.81
2023-09-28T13:07:49.224Z,13.13
2023-09-28T13:08:52.150Z,15.13
2023-09-28T13:09:59.028Z,12.13
2023-09-28T13:11:02.311Z,13.38
2023-09-28T13:12:05.355Z,13.75
2023-09-28T13:13:08.207Z,11.56
2023-09-28T13:14:11.080Z,13.62
2023-09-28T13:15:14.176Z,10.44
2023-09-28T13:16:18.804Z,14.06
2023-09-28T13:17:21.738Z,13.44
2023-09-28T13:18:24.733Z,14.00
2023-09-28T13:19:27.640Z,63.44
2023-09-28T13:20:30.783Z,20.44
2023-09-28T13:21:33.853Z,12.19
2023-09-28T13:22:38.176Z,16.12
2023-09-28T13:23:42.860Z,13.50
2023-09-28T13:24:45.736Z,12.44
2023-09-28T13:25:48.589Z,16.19
2023-09-28T13:26:51.648Z,10.63
2023-09-28T13:27:54.692Z,16.19
2023-09-28T13:28:59.934Z,12.31
2023-09-28T13:30:02.565Z,11.00
2023-09-28T13:31:05.481Z,11.63
2023-09-28T13:32:08.526Z,12.88
2023-09-28T13:33:11.588Z,12.13
2023-09-28T13:34:15.141Z,12.56
2023-09-28T13:35:18.463Z,12.88
2023-09-28T13:36:21.602Z,10.69
2023-09-28T13:37:24.633Z,12.44
2023-09-28T13:38:27.654Z,10.69
2023-09-28T13:39:30.641Z,12.56
2023-09-28T13:40:33.573Z,13.13
2023-09-28T13:41:37.955Z,12.13
2023-09-28T13:42:41.009Z,13.44